createdAt,value
2022-07-30T00:00:49.677Z,101441.56
2022-07-30T00:03:16.261Z,101431.44
2022-07-30T00:05:43.068Z,101436.75
2022-07-30T00:08:09.521Z,101435.84
2022-07-30T00:10:36.268Z,101431.22
2022-07-30T00:13:02.923Z,101441.06
2022-07-30T00:15:29.511Z,101428.63
2022-07-30T00:17:56.547Z,101427.13
2022-07-30T00:20:23.613Z,101429.22
2022-07-30T00:22:54.698Z,101428.38
2022-07-30T00:25:21.239Z,101423.78
2022-07-30T00:27:48.088Z,101418.59
2022-07-30T00:30:15.063Z,101422.09
2022-07-30T00:32:41.657Z,101416.81
2022-07-30T00:35:08.587Z,101416.81
2022-07-30T00:37:35.448Z,101418.69
2022-07-30T00:40:01.974Z,101417.84
2022-07-30T00:42:40.101Z,101420.59
2022-07-30T00:45:08.133Z,101417.00
2022-07-30T00:47:34.795Z,101422.25
2022-07-30T00:50:04.218Z,101420.59
2022-07-30T00:52:32.417Z,101426.97
2022-07-30T00:55:00.022Z,101426.09
2022-07-30T00:57:28.074Z,101426.09
2022-07-30T00:59:55.045Z,101427.31
2022-07-30T01:02:21.775Z,101430.81
2022-07-30T01:04:48.515Z,101430.44
2022-07-30T01:07:16.139Z,101421.53
2022-07-30T01:09:43.037Z,101430.97
2022-07-30T01:12:19.675Z,101422.94
2022-07-30T01:14:46.607Z,101422.63
2022-07-30T01:17:13.659Z,101422.63
2022-07-30T01:19:56.148Z,101420.84
2022-07-30T01:22:39.303Z,101421.59
2022-07-30T01:25:36.856Z,101424.13
2022-07-30T01:28:07.320Z,101425.81
2022-07-30T01:30:39.059Z,101427.88
2022-07-30T01:33:07.176Z,101427.25
2022-07-30T01:35:35.168Z,101432.66
2022-07-30T01:38:05.294Z,101439.63
2022-07-30T01:40:32.575Z,101432.78
2022-07-30T01:43:01.929Z,101432.88
2022-07-30T01:45:30.825Z,101442.63
2022-07-30T01:48:03.440Z,101436.81
2022-07-30T01:50:31.166Z,101440.56
2022-07-30T01:52:58.964Z,101436.06
2022-07-30T01:55:30.656Z,101438.34
2022-07-30T01:57:59.463Z,101438.34
2022-07-30T02:00:30.725Z,101438.72
2022-07-30T02:02:58.484Z,101444.31
2022-07-30T02:05:27.990Z,101444.69
2022-07-30T02:08:11.090Z,101446.56
2022-07-30T02:10:45.431Z,101444.78
2022-07-30T02:13:14.128Z,101452.78
2022-07-30T02:15:52.978Z,101450.16
2022-07-30T02:18:31.492Z,101455.56
2022-07-30T02:21:07.607Z,101449.47
2022-07-30T02:23:44.037Z,101459.88
2022-07-30T02:26:18.817Z,101452.94
2022-07-30T02:28:49.910Z,101446.00
2022-07-30T02:31:20.895Z,101454.81
2022-07-30T02:33:49.653Z,101453.88
2022-07-30T02:36:19.235Z,101452.84
2022-07-30T02:38:46.713Z,101452.78
2022-07-30T02:41:13.750Z,101449.19
2022-07-30T02:43:42.725Z,101451.91
2022-07-30T02:46:11.295Z,101453.63
2022-07-30T02:48:39.963Z,101456.31
2022-07-30T02:51:09.102Z,101457.34
2022-07-30T02:53:37.517Z,101462.78
2022-07-30T02:56:07.570Z,101462.84
2022-07-30T02:58:35.750Z,101460.44
2022-07-30T03:01:03.876Z,101458.84
2022-07-30T03:03:31.899Z,101461.47
2022-07-30T03:06:00.042Z,101456.28
2022-07-30T03:08:28.899Z,101460.63
2022-07-30T03:10:56.281Z,101465.88
2022-07-30T03:13:24.410Z,101463.31
2022-07-30T03:15:52.739Z,101462.56
2022-07-30T03:18:21.994Z,101452.16
2022-07-30T03:20:54.557Z,101455.53
2022-07-30T03:23:23.249Z,101454.59
2022-07-30T03:25:56.780Z,101460.03
2022-07-30T03:28:25.099Z,101453.19
2022-07-30T03:30:53.479Z,101468.75
2022-07-30T03:33:21.853Z,101468.94
2022-07-30T03:35:50.073Z,101469.78
2022-07-30T03:38:18.090Z,101469.22
2022-07-30T03:40:45.562Z,101476.25
2022-07-30T03:43:32.209Z,101474.06
2022-07-30T03:46:02.705Z,101479.47
2022-07-30T03:48:30.391Z,101474.34
2022-07-30T03:50:58.504Z,101482.53
2022-07-30T03:53:25.398Z,101482.22
2022-07-30T03:55:52.658Z,101483.31
2022-07-30T03:58:19.307Z,101478.06
2022-07-30T04:00:50.617Z,101484.59
2022-07-30T04:03:35.380Z,101483.09
2022-07-30T04:06:03.347Z,101489.44
2022-07-30T04:08:30.258Z,101489.78
2022-07-30T04:10:57.955Z,101496.13
2022-07-30T04:13:24.501Z,101494.19
2022-07-30T04:16:04.820Z,101501.94
2022-07-30T04:18:52.335Z,101492.72
2022-07-30T04:21:21.943Z,101500.69
2022-07-30T04:24:03.150Z,101510.53
2022-07-30T04:26:34.239Z,101509.59
2022-07-30T04:29:02.358Z,101515.06
2022-07-30T04:31:29.843Z,101517.59
2022-07-30T04:33:58.855Z,101514.72
2022-07-30T04:36:32.878Z,101522.00
2022-07-30T04:39:00.369Z,101520.63
2022-07-30T04:41:26.867Z,101532.28
2022-07-30T04:43:53.530Z,101529.25
2022-07-30T04:46:20.439Z,101532.22
2022-07-30T04:48:52.075Z,101530.25
2022-07-30T04:51:24.366Z,101542.94
2022-07-30T04:53:54.850Z,101538.25
2022-07-30T04:56:23.122Z,101542.41
2022-07-30T04:58:51.808Z,101544.09
2022-07-30T05:01:37.116Z,101540.28
2022-07-30T05:04:09.241Z,101543.56
2022-07-30T05:06:38.081Z,101552.00
2022-07-30T05:09:04.618Z,101556.59
2022-07-30T05:11:31.388Z,101557.44
2022-07-30T05:13:58.024Z,101558.94
2022-07-30T05:16:24.974Z,101563.38
2022-07-30T05:18:52.121Z,101559.50
2022-07-30T05:21:18.666Z,101565.25
2022-07-30T05:23:50.101Z,101566.78
2022-07-30T05:26:21.736Z,101568.22
2022-07-30T05:28:53.910Z,101566.03
2022-07-30T05:31:24.449Z,101572.03
2022-07-30T05:33:52.054Z,101573.13
2022-07-30T05:36:20.112Z,101573.13
2022-07-30T05:38:47.159Z,101577.75
2022-07-30T05:41:18.998Z,101579.88
2022-07-30T05:43:59.198Z,101577.59
2022-07-30T05:46:25.857Z,101581.84
2022-07-30T05:48:52.554Z,101584.13
2022-07-30T05:51:21.064Z,101582.25
2022-07-30T05:53:47.764Z,101589.38
2022-07-30T05:56:14.274Z,101592.84
2022-07-30T05:58:41.216Z,101595.38
2022-07-30T06:01:07.939Z,101607.81
2022-07-30T06:03:34.912Z,101599.44
2022-07-30T06:06:07.208Z,101604.59
2022-07-30T06:08:34.009Z,101595.13
2022-07-30T06:11:00.426Z,101596.16
2022-07-30T06:13:27.448Z,101602.31
2022-07-30T06:15:54.270Z,101601.31
2022-07-30T06:18:23.159Z,101603.94
2022-07-30T06:20:54.218Z,101602.59
2022-07-30T06:23:21.467Z,101603.44
2022-07-30T06:25:48.790Z,101605.47
2022-07-30T06:28:36.487Z,101607.84
2022-07-30T06:31:03.060Z,101612.66
2022-07-30T06:33:30.152Z,101609.09
2022-07-30T06:35:56.614Z,101611.91
2022-07-30T06:38:23.056Z,101610.88
2022-07-30T06:40:49.641Z,101612.22
2022-07-30T06:43:16.402Z,101630.16
2022-07-30T06:45:43.394Z,101630.91
2022-07-30T06:48:09.976Z,101635.66
2022-07-30T06:50:37.397Z,101640.91
2022-07-30T06:53:04.349Z,101632.69
2022-07-30T06:55:31.243Z,101633.97
2022-07-30T06:57:57.728Z,101629.69
2022-07-30T07:00:24.328Z,101630.41
2022-07-30T07:02:51.290Z,101632.22
2022-07-30T07:05:18.073Z,101628.88
2022-07-30T07:07:56.539Z,101629.75
2022-07-30T07:10:25.566Z,101630.41
2022-07-30T07:12:52.065Z,101627.31
2022-07-30T07:15:18.564Z,101638.41
2022-07-30T07:17:45.801Z,101632.03
2022-07-30T07:20:12.333Z,101626.28
2022-07-30T07:22:38.933Z,101634.06
2022-07-30T07:25:06.010Z,101635.63
2022-07-30T07:27:32.619Z,101633.09
2022-07-30T07:30:04.619Z,101629.34
2022-07-30T07:32:34.067Z,101635.56
2022-07-30T07:35:00.774Z,101638.63
2022-07-30T07:37:27.700Z,101634.69
2022-07-30T07:39:54.165Z,101640.31
2022-07-30T07:42:21.542Z,101643.09
2022-07-30T07:44:48.005Z,101638.88
2022-07-30T07:47:14.555Z,101639.16
2022-07-30T07:49:41.788Z,101633.59
2022-07-30T07:52:08.562Z,101635.53
2022-07-30T07:54:35.246Z,101638.09
2022-07-30T07:57:02.357Z,101640.88
2022-07-30T07:59:36.235Z,101636.78
2022-07-30T08:02:08.563Z,101637.75
2022-07-30T08:04:36.266Z,101637.81
2022-07-30T08:07:03.568Z,101632.31
2022-07-30T08:09:43.731Z,101636.56
2022-07-30T08:12:12.403Z,101624.53
2022-07-30T08:14:39.081Z,101632.13
2022-07-30T08:17:06.222Z,101636.56
2022-07-30T08:19:33.325Z,101630.84
2022-07-30T08:21:59.903Z,101634.97
2022-07-30T08:24:27.016Z,101633.41
2022-07-30T08:26:53.797Z,101635.72
2022-07-30T08:29:20.473Z,101629.28
2022-07-30T08:31:46.974Z,101631.69
2022-07-30T08:34:13.859Z,101633.59
2022-07-30T08:36:41.172Z,101633.72
2022-07-30T08:39:08.539Z,101641.59
2022-07-30T08:41:36.640Z,101640.56
2022-07-30T08:44:04.765Z,101640.34
2022-07-30T08:46:34.226Z,101642.25
2022-07-30T08:49:05.378Z,101645.72
2022-07-30T08:51:36.135Z,101640.16
2022-07-30T08:54:04.654Z,101641.00
2022-07-30T08:56:33.179Z,101644.16
2022-07-30T08:59:00.533Z,101639.19
2022-07-30T09:01:27.413Z,101629.47
2022-07-30T09:03:53.944Z,101633.13
2022-07-30T09:06:20.508Z,101634.63
2022-07-30T09:08:47.386Z,101634.50
2022-07-30T09:11:14.179Z,101634.69
2022-07-30T09:13:42.618Z,101629.75
2022-07-30T09:16:20.071Z,101636.94
2022-07-30T09:18:46.586Z,101643.75
2022-07-30T09:21:27.221Z,101629.81
2022-07-30T09:24:00.847Z,101629.88
2022-07-30T09:26:27.974Z,101626.69
2022-07-30T09:28:54.827Z,101628.88
2022-07-30T09:31:23.815Z,101623.63
2022-07-30T09:33:50.451Z,101619.13
2022-07-30T09:36:18.645Z,101622.88
2022-07-30T09:38:50.691Z,101627.00
2022-07-30T09:41:38.196Z,101628.97
2022-07-30T09:44:06.742Z,101633.59
2022-07-30T09:46:42.595Z,101624.94
2022-07-30T09:49:17.346Z,101629.59
2022-07-30T09:51:56.383Z,101627.94
2022-07-30T09:54:25.687Z,101629.72
2022-07-30T09:57:25.769Z,101627.66
2022-07-30T09:59:55.854Z,101623.84
2022-07-30T10:02:33.932Z,101627.59
2022-07-30T10:05:15.089Z,101625.44
2022-07-30T10:08:16.756Z,101623.44
2022-07-30T10:10:50.732Z,101627.25
2022-07-30T10:13:20.797Z,101619.56
2022-07-30T10:15:49.616Z,101625.78
2022-07-30T10:18:18.172Z,101630.56
2022-07-30T10:20:45.350Z,101632.38
2022-07-30T10:23:15.851Z,101620.38
2022-07-30T10:25:49.629Z,101632.53
2022-07-30T10:28:22.685Z,101621.50
2022-07-30T10:30:52.458Z,101624.16
2022-07-30T10:33:34.430Z,101622.09
2022-07-30T10:36:03.009Z,101626.81
2022-07-30T10:38:34.311Z,101631.97
2022-07-30T10:41:11.639Z,101624.25
2022-07-30T10:43:58.925Z,101633.28
2022-07-30T10:47:06.916Z,101635.97
2022-07-30T10:49:40.498Z,101632.81
2022-07-30T10:52:08.261Z,101632.03
2022-07-30T10:54:39.201Z,101627.56
2022-07-30T10:57:06.386Z,101626.00
2022-07-30T11:00:03.727Z,101627.78
2022-07-30T11:02:35.133Z,101626.38
2022-07-30T11:05:17.300Z,101607.47
2022-07-30T11:07:48.922Z,101615.78
2022-07-30T11:10:35.268Z,101613.59
2022-07-30T11:13:03.325Z,101616.00
2022-07-30T11:15:54.821Z,101611.44
2022-07-30T11:18:25.110Z,101613.25
2022-07-30T11:21:15.993Z,101609.50
2022-07-30T11:23:44.665Z,101615.63
2022-07-30T11:26:14.140Z,101615.00
2022-07-30T11:28:45.455Z,101615.22
2022-07-30T11:31:55.592Z,101608.97
2022-07-30T11:34:19.276Z,101614.03
2022-07-30T11:37:19.202Z,101608.03
2022-07-30T11:39:57.929Z,101605.59
2022-07-30T11:42:32.348Z,101608.69
2022-07-30T11:45:17.497Z,101604.00
2022-07-30T11:47:46.733Z,101603.72
2022-07-30T11:50:21.233Z,101608.53
2022-07-30T11:53:04.689Z,101611.06
2022-07-30T11:55:40.324Z,101606.25
2022-07-30T11:58:10.150Z,101608.91
2022-07-30T12:00:40.113Z,101601.66
2022-07-30T12:03:15.531Z,101606.59
2022-07-30T12:05:43.874Z,101608.38
2022-07-30T12:08:35.150Z,101611.94
2022-07-30T12:11:00.797Z,101600.81
2022-07-30T12:13:44.517Z,101607.28
2022-07-30T12:16:16.775Z,101613.63
2022-07-30T12:18:44.263Z,101608.19
2022-07-30T12:21:17.280Z,101595.00
2022-07-30T12:24:07.357Z,101592.59
2022-07-30T12:26:34.910Z,101593.06
2022-07-30T12:29:10.497Z,101591.41
2022-07-30T12:31:38.504Z,101577.66
2022-07-30T12:34:26.921Z,101587.88
2022-07-30T12:36:54.447Z,101585.03
2022-07-30T12:39:26.633Z,101592.47
2022-07-30T12:41:56.451Z,101589.59
2022-07-30T12:44:35.896Z,101590.22
2022-07-30T12:47:04.683Z,101579.25
2022-07-30T12:49:36.663Z,101587.44
2022-07-30T12:52:28.311Z,101588.44
2022-07-30T12:55:10.615Z,101586.69
2022-07-30T12:58:05.441Z,101598.47
2022-07-30T13:00:55.294Z,101586.34
2022-07-30T13:03:27.473Z,101586.72
2022-07-30T13:05:56.202Z,101590.38
2022-07-30T13:08:47.426Z,101584.53
2022-07-30T13:11:14.295Z,101587.34
2022-07-30T13:13:40.832Z,101574.81
2022-07-30T13:16:07.965Z,101573.97
2022-07-30T13:18:36.152Z,101573.47
2022-07-30T13:21:05.644Z,101574.47
2022-07-30T13:23:32.362Z,101580.22
2022-07-30T13:25:59.657Z,101578.53
2022-07-30T13:28:26.876Z,101577.28
2022-07-30T13:30:53.584Z,101578.84
2022-07-30T13:33:20.013Z,101574.22
2022-07-30T13:35:46.537Z,101578.97
2022-07-30T13:38:13.624Z,101578.97
2022-07-30T13:40:40.482Z,101578.53
2022-07-30T13:43:07.052Z,101569.59
2022-07-30T13:45:34.869Z,101575.91
2022-07-30T13:48:01.818Z,101576.59
2022-07-30T13:50:28.581Z,101575.06
2022-07-30T13:52:58.860Z,101579.97
2022-07-30T13:55:28.859Z,101571.97
2022-07-30T13:57:55.358Z,101575.91
2022-07-30T14:00:23.064Z,101572.13
2022-07-30T14:02:49.698Z,101571.28
2022-07-30T14:05:16.262Z,101564.78
2022-07-30T14:07:42.782Z,101562.75
2022-07-30T14:10:09.492Z,101557.88
2022-07-30T14:12:36.593Z,101558.50
2022-07-30T14:15:03.658Z,101552.06
2022-07-30T14:17:30.330Z,101552.00
2022-07-30T14:19:56.833Z,101548.88
2022-07-30T14:22:24.090Z,101555.44
2022-07-30T14:24:50.528Z,101543.38
2022-07-30T14:27:20.324Z,101544.81
2022-07-30T14:29:47.248Z,101550.06
2022-07-30T14:32:13.784Z,101548.16
2022-07-30T14:34:40.256Z,101542.59
2022-07-30T14:37:06.728Z,101547.66
2022-07-30T14:39:36.136Z,101538.84
2022-07-30T14:42:02.915Z,101540.56
2022-07-30T14:44:29.930Z,101540.06
2022-07-30T14:46:56.386Z,101532.03
2022-07-30T14:49:24.110Z,101532.88
2022-07-30T14:51:51.393Z,101539.09
2022-07-30T14:54:18.220Z,101533.94
2022-07-30T14:56:44.712Z,101538.63
2022-07-30T14:59:11.292Z,101532.81
2022-07-30T15:01:37.922Z,101530.53
2022-07-30T15:04:09.332Z,101527.28
2022-07-30T15:06:37.290Z,101525.47
2022-07-30T15:09:04.520Z,101530.03
2022-07-30T15:11:40.289Z,101534.28
2022-07-30T15:14:17.081Z,101531.19
2022-07-30T15:16:46.429Z,101530.09
2022-07-30T15:19:13.745Z,101526.81
2022-07-30T15:21:40.221Z,101527.84
2022-07-30T15:24:06.757Z,101523.34
2022-07-30T15:26:33.288Z,101522.84
2022-07-30T15:29:00.134Z,101530.88
2022-07-30T15:31:26.603Z,101529.63
2022-07-30T15:33:53.418Z,101536.09
2022-07-30T15:36:20.131Z,101531.44
2022-07-30T15:38:47.110Z,101530.66
2022-07-30T15:41:14.042Z,101524.25
2022-07-30T15:43:40.632Z,101528.75
2022-07-30T15:46:07.060Z,101527.50
2022-07-30T15:48:33.653Z,101533.81
2022-07-30T15:51:02.978Z,101524.97
2022-07-30T15:53:31.166Z,101532.94
2022-07-30T15:55:59.293Z,101524.53
2022-07-30T15:58:25.849Z,101526.22
2022-07-30T16:00:52.509Z,101531.97
2022-07-30T16:03:19.073Z,101534.31
2022-07-30T16:05:51.744Z,101527.88
2022-07-30T16:08:19.284Z,101528.19
2022-07-30T16:10:46.096Z,101533.50
2022-07-30T16:13:12.602Z,101542.47
2022-07-30T16:15:39.169Z,101535.88
2022-07-30T16:18:06.379Z,101536.03
2022-07-30T16:20:33.380Z,101534.31
2022-07-30T16:23:00.163Z,101534.50
2022-07-30T16:25:26.884Z,101529.59
2022-07-30T16:27:53.450Z,101535.34
2022-07-30T16:30:20.004Z,101534.59
2022-07-30T16:32:46.666Z,101528.69
2022-07-30T16:35:13.642Z,101522.53
2022-07-30T16:37:40.298Z,101519.19
2022-07-30T16:40:07.197Z,101520.84
2022-07-30T16:42:33.703Z,101517.22
2022-07-30T16:45:00.284Z,101515.72
2022-07-30T16:47:26.678Z,101527.34
2022-07-30T16:49:53.196Z,101520.34
2022-07-30T16:52:19.722Z,101522.72
2022-07-30T16:54:46.722Z,101521.31
2022-07-30T16:57:13.433Z,101520.91
2022-07-30T16:59:42.273Z,101522.03
2022-07-30T17:02:10.746Z,101514.63
2022-07-30T17:04:39.046Z,101515.84
2022-07-30T17:07:05.501Z,101515.66
2022-07-30T17:09:36.748Z,101522.22
2022-07-30T17:12:06.249Z,101520.81
2022-07-30T17:14:39.091Z,101520.56
2022-07-30T17:17:05.535Z,101523.31
2022-07-30T17:19:32.070Z,101528.22
2022-07-30T17:21:58.871Z,101522.03
2022-07-30T17:24:25.403Z,101523.84
2022-07-30T17:26:51.878Z,101530.53
2022-07-30T17:29:18.525Z,101526.88
2022-07-30T17:31:45.507Z,101527.72
2022-07-30T17:34:13.920Z,101534.28
2022-07-30T17:36:50.197Z,101535.53
2022-07-30T17:40:28.094Z,101533.31
2022-07-30T17:42:05.856Z,101533.47
2022-07-30T17:44:32.324Z,101538.06
2022-07-30T17:46:58.978Z,101535.00
2022-07-30T17:49:27.861Z,101540.06
2022-07-30T17:51:54.741Z,101540.38
2022-07-30T17:54:21.264Z,101539.63
2022-07-30T17:56:47.728Z,101536.44
2022-07-30T17:59:14.247Z,101538.38
2022-07-30T18:01:40.813Z,101549.53
2022-07-30T18:04:07.269Z,101540.44
2022-07-30T18:06:33.801Z,101537.94
2022-07-30T18:09:00.241Z,101543.50
2022-07-30T18:11:26.736Z,101544.06
2022-07-30T18:13:54.285Z,101545.69
2022-07-30T18:16:20.748Z,101540.25
2022-07-30T18:18:47.214Z,101540.31
2022-07-30T18:21:13.852Z,101548.53
2022-07-30T18:23:40.557Z,101545.75
2022-07-30T18:26:07.289Z,101545.16
2022-07-30T18:28:33.982Z,101548.59
2022-07-30T18:31:00.474Z,101552.22
2022-07-30T18:33:26.973Z,101553.22
2022-07-30T18:35:53.802Z,101546.59
2022-07-30T18:38:20.592Z,101555.13
2022-07-30T18:40:57.499Z,101553.03
2022-07-30T18:43:26.006Z,101558.72
2022-07-30T18:45:53.439Z,101555.91
2022-07-30T18:48:19.999Z,101553.41
2022-07-30T18:50:46.747Z,101561.38
2022-07-30T18:53:15.039Z,101561.50
2022-07-30T18:55:43.189Z,101554.28
2022-07-30T18:58:10.051Z,101554.09
2022-07-30T19:00:37.305Z,101559.09
2022-07-30T19:03:04.359Z,101556.84
2022-07-30T19:05:31.304Z,101558.50
2022-07-30T19:07:58.785Z,101556.31
2022-07-30T19:10:26.597Z,101557.69
2022-07-30T19:12:53.926Z,101557.06
2022-07-30T19:15:20.663Z,101557.34
2022-07-30T19:17:48.959Z,101551.78
2022-07-30T19:20:15.577Z,101563.81
2022-07-30T19:22:42.112Z,101556.94
2022-07-30T19:25:09.355Z,101557.59
2022-07-30T19:27:35.902Z,101555.31
2022-07-30T19:30:03.681Z,101560.84
2022-07-30T19:32:30.360Z,101559.53
2022-07-30T19:34:56.915Z,101557.16
2022-07-30T19:37:23.718Z,101557.97
2022-07-30T19:40:05.557Z,101561.47
2022-07-30T19:42:33.789Z,101565.09
2022-07-30T19:45:04.380Z,101564.13
2022-07-30T19:47:39.263Z,101569.28
2022-07-30T19:50:07.454Z,101573.03
2022-07-30T19:52:35.848Z,101573.31
2022-07-30T19:55:04.169Z,101569.34
2022-07-30T19:57:53.208Z,101570.19
2022-07-30T20:00:24.596Z,101572.69
2022-07-30T20:02:52.354Z,101569.56
2022-07-30T20:05:19.884Z,101570.41
2022-07-30T20:07:47.118Z,101569.00
2022-07-30T20:10:16.249Z,101572.34
2022-07-30T20:12:49.440Z,101565.66
2022-07-30T20:15:16.999Z,101572.84
2022-07-30T20:17:43.570Z,101568.66
2022-07-30T20:20:13.793Z,101570.59
2022-07-30T20:22:41.061Z,101571.66
2022-07-30T20:25:08.808Z,101571.66
2022-07-30T20:27:38.594Z,101575.28
2022-07-30T20:30:06.248Z,101580.59
2022-07-30T20:32:34.310Z,101579.75
2022-07-30T20:35:00.831Z,101575.28
2022-07-30T20:37:27.850Z,101580.00
2022-07-30T20:39:55.487Z,101579.41
2022-07-30T20:42:23.937Z,101584.94
2022-07-30T20:44:53.606Z,101583.28
2022-07-30T20:47:34.407Z,101578.91
2022-07-30T20:50:06.051Z,101577.25
2022-07-30T20:52:40.319Z,101571.50
2022-07-30T20:55:16.651Z,101568.72
2022-07-30T20:57:56.873Z,101575.44
2022-07-30T21:00:29.456Z,101575.19
2022-07-30T21:02:55.906Z,101572.41
2022-07-30T21:05:22.415Z,101579.75
2022-07-30T21:07:53.908Z,101583.59
2022-07-30T21:10:23.635Z,101569.06
2022-07-30T21:13:08.923Z,101580.84
2022-07-30T21:15:36.551Z,101578.47
2022-07-30T21:18:12.350Z,101582.09
2022-07-30T21:20:38.821Z,101577.28
2022-07-30T21:23:10.200Z,101570.31
2022-07-30T21:26:00.354Z,101570.78
2022-07-30T21:28:27.612Z,101564.03
2022-07-30T21:30:54.676Z,101565.00
2022-07-30T21:33:24.093Z,101558.97
2022-07-30T21:35:57.487Z,101559.19
2022-07-30T21:38:26.315Z,101559.19
2022-07-30T21:40:52.927Z,101559.44
2022-07-30T21:43:28.732Z,101554.16
2022-07-30T21:45:57.079Z,101558.47
2022-07-30T21:48:24.684Z,101552.47
2022-07-30T21:50:52.701Z,101554.38
2022-07-30T21:53:29.474Z,101556.19
2022-07-30T21:56:05.988Z,101543.22
2022-07-30T21:58:32.664Z,101540.69
2022-07-30T22:01:16.350Z,101551.50
2022-07-30T22:04:03.604Z,101538.28
2022-07-30T22:06:36.607Z,101550.78
2022-07-30T22:09:19.698Z,101554.41
2022-07-30T22:11:54.270Z,101556.22
2022-07-30T22:14:20.787Z,101549.34
2022-07-30T22:16:47.498Z,101543.34
2022-07-30T22:19:15.143Z,101548.63
2022-07-30T22:21:42.843Z,101545.28
2022-07-30T22:24:28.892Z,101544.06
2022-07-30T22:27:01.736Z,101538.28
2022-07-30T22:29:41.510Z,101546.47
2022-07-30T22:32:09.233Z,101545.97
2022-07-30T22:34:35.706Z,101538.25
2022-07-30T22:37:02.760Z,101538.53
2022-07-30T22:39:31.746Z,101537.56
2022-07-30T22:42:16.255Z,101537.69
2022-07-30T22:44:45.684Z,101535.16
2022-07-30T22:47:18.641Z,101546.56
2022-07-30T22:49:56.760Z,101542.34
2022-07-30T22:52:28.951Z,101542.59
2022-07-30T22:54:57.841Z,101540.06
2022-07-30T22:57:27.372Z,101538.50
2022-07-30T22:59:58.198Z,101540.28
2022-07-30T23:02:27.787Z,101541.25
2022-07-30T23:04:54.890Z,101542.22
2022-07-30T23:07:23.474Z,101541.38
2022-07-30T23:09:55.669Z,101544.88
2022-07-30T23:12:23.289Z,101542.34
2022-07-30T23:14:49.839Z,101539.84
2022-07-30T23:17:16.663Z,101536.34
2022-07-30T23:19:43.132Z,101535.47
2022-07-30T23:22:10.212Z,101534.88
2022-07-30T23:24:37.031Z,101533.22
2022-07-30T23:27:04.447Z,101531.72
2022-07-30T23:29:31.471Z,101530.88
2022-07-30T23:31:57.888Z,101526.44
2022-07-30T23:34:24.329Z,101530.03
2022-07-30T23:36:50.859Z,101523.06
2022-07-30T23:39:19.547Z,101517.78
2022-07-30T23:41:46.618Z,101512.25
2022-07-30T23:44:13.096Z,101511.53
2022-07-30T23:46:40.792Z,101509.84
2022-07-30T23:49:07.630Z,101512.72
2022-07-30T23:51:34.316Z,101504.91
2022-07-30T23:54:01.422Z,101506.72
2022-07-30T23:56:27.902Z,101503.56
2022-07-30T23:58:54.628Z,101499.50
